Time;durP1;ratioP1;P1;durP2;ratioP2;P2;SDS_P1;SDS_P2;PMS_P1;PMS_P2;Temp;Humidity;BMP_temperature;BMP_pressure;BME280_temperature;BME280_humidity;BME280_pressure;Samples;Min_cycle;Max_cycle;Signal;HPM_P1;HPM_P2
2021/10/07 00:00:49;;;;;;;9.60;7.05;;;;;;;16.60;59.14;102436.94;5036557;27;102075;-49
2021/10/07 00:03:15;;;;;;;8.18;6.18;;;;;;;16.62;59.29;102442.16;5035128;27;102407;-49
2021/10/07 00:05:42;;;;;;;9.32;6.40;;;;;;;16.60;59.12;102436.94;5036266;27;103837;-50
2021/10/07 00:08:08;;;;;;;8.85;6.40;;;;;;;16.61;59.31;102435.03;5031259;27;102236;-49
2021/10/07 00:10:35;;;;;;;11.10;6.88;;;;;;;16.60;59.38;102433.38;5035535;27;102765;-49
2021/10/07 00:13:03;;;;;;;8.95;7.13;;;;;;;16.61;59.44;102435.03;5035029;27;102478;-50
2021/10/07 00:15:30;;;;;;;9.50;6.65;;;;;;;16.61;59.38;102440.53;5033464;27;103885;-49
2021/10/07 00:17:57;;;;;;;7.60;6.20;;;;;;;16.61;59.22;102429.53;5035503;27;102123;-49
2021/10/07 00:20:24;;;;;;;7.93;6.35;;;;;;;16.59;59.07;102427.06;5032751;27;102373;-49
2021/10/07 00:22:51;;;;;;;9.75;6.93;;;;;;;16.60;59.46;102434.19;5031168;27;102089;-49
2021/10/07 00:25:17;;;;;;;8.45;6.95;;;;;;;16.58;59.40;102431.72;5027096;27;103721;-49
2021/10/07 00:27:44;;;;;;;9.30;6.78;;;;;;;16.58;59.07;102428.97;5034287;27;102444;-49
2021/10/07 00:30:19;;;;;;;10.38;6.57;;;;;;;16.60;59.28;102433.38;5034676;27;102576;-49
2021/10/07 00:33:06;;;;;;;9.00;7.13;;;;;;;16.60;59.26;102433.38;5032114;27;102522;-48
2021/10/07 00:40:49;;;;;;;10.10;7.55;;;;;;;16.60;59.04;102422.38;5022341;27;102363;-49
2021/10/07 00:43:16;;;;;;;10.15;7.47;;;;;;;16.58;59.17;102425.38;5035380;27;102520;-49
2021/10/07 00:45:50;;;;;;;8.63;7.43;;;;;;;16.57;59.16;102424.56;5026610;27;103856;-48
2021/10/07 00:48:17;;;;;;;7.97;6.82;;;;;;;16.57;59.23;102427.31;5038769;27;102177;-49
2021/10/07 00:50:44;;;;;;;8.55;7.15;;;;;;;16.58;58.86;102425.38;5024576;27;102362;-49
2021/10/07 00:53:12;;;;;;;8.50;7.00;;;;;;;16.58;58.97;102425.38;5036531;27;102270;-48
2021/10/07 00:55:39;;;;;;;9.20;7.23;;;;;;;16.58;59.03;102428.97;5039875;27;106067;-50
2021/10/07 00:58:06;;;;;;;13.13;8.00;;;;;;;16.57;59.54;102427.31;5030827;27;102226;-50
2021/10/07 01:00:34;;;;;;;10.32;8.07;;;;;;;16.57;59.42;102424.56;5032930;27;102642;-50
2021/10/07 01:03:02;;;;;;;9.93;7.60;;;;;;;16.57;59.39;102419.06;5033775;27;102568;-48
2021/10/07 01:05:29;;;;;;;9.40;7.35;;;;;;;16.57;59.28;102421.00;5029885;27;104041;-49
2021/10/07 01:07:57;;;;;;;7.85;6.68;;;;;;;16.57;59.06;102423.75;5031341;27;102483;-49
2021/10/07 01:10:24;;;;;;;9.60;7.22;;;;;;;16.56;59.06;102420.19;5026852;27;102516;-50
2021/10/07 01:12:51;;;;;;;9.57;6.90;;;;;;;16.56;59.39;102420.19;5028132;27;102298;-49
2021/10/07 01:15:18;;;;;;;25.63;7.68;;;;;;;16.56;59.50;102427.59;5028151;27;103700;-49
2021/10/07 01:17:45;;;;;;;9.20;7.47;;;;;;;16.57;59.03;102424.56;5031641;27;102298;-49
2021/10/07 01:20:14;;;;;;;10.15;7.53;;;;;;;16.56;58.92;102428.41;5024837;27;102427;-49
2021/10/07 01:22:40;;;;;;;11.43;6.77;;;;;;;16.56;59.42;102428.41;5024944;27;102234;-49
2021/10/07 01:25:07;;;;;;;12.23;7.28;;;;;;;16.56;59.49;102430.34;5032472;27;103933;-50
2021/10/07 01:27:37;;;;;;;9.90;7.40;;;;;;;16.56;59.04;102433.91;5024841;27;103431;-49
2021/10/07 01:30:07;;;;;;;9.43;7.18;;;;;;;16.56;59.25;102433.91;5025603;27;102269;-49
2021/10/07 01:32:34;;;;;;;8.80;6.57;;;;;;;16.55;59.24;102423.19;5024881;27;101990;-52
2021/10/07 01:35:01;;;;;;;7.82;6.40;;;;;;;16.56;59.00;102433.09;5027119;27;104086;-49
2021/10/07 01:37:29;;;;;;;8.77;6.80;;;;;;;16.55;59.11;102426.78;5045826;27;102479;-49
2021/10/07 01:39:56;;;;;;;9.77;6.57;;;;;;;16.55;59.58;102426.78;5026674;27;102393;-49
2021/10/07 01:42:23;;;;;;;7.88;6.88;;;;;;;16.55;59.08;102431.41;5040517;27;102313;-48
2021/10/07 01:44:49;;;;;;;8.05;6.55;;;;;;;16.55;59.28;102431.41;5031060;27;102988;-49
2021/10/07 01:47:15;;;;;;;11.48;6.90;;;;;;;16.55;59.22;102437.78;5024528;27;102574;-49
2021/10/07 01:49:42;;;;;;;9.27;6.57;;;;;;;16.56;59.51;102438.59;5031551;27;102290;-49
2021/10/07 01:52:09;;;;;;;9.23;6.70;;;;;;;16.54;59.34;102436.09;5032888;27;102732;-48
2021/10/07 01:54:37;;;;;;;9.43;6.97;;;;;;;16.54;59.15;102438.03;5024071;27;105974;-49
2021/10/07 01:57:04;;;;;;;9.20;6.38;;;;;;;16.54;58.93;102430.59;5031190;27;102151;-49
2021/10/07 01:59:30;;;;;;;7.40;6.25;;;;;;;16.55;58.94;102425.91;5042259;27;102030;-49
2021/10/07 02:01:57;;;;;;;8.73;5.78;;;;;;;16.55;59.51;102431.41;5042725;27;102594;-49
2021/10/07 02:04:24;;;;;;;7.57;6.32;;;;;;;16.54;59.46;102419.59;5030485;27;104005;-48
2021/10/07 02:06:50;;;;;;;6.60;5.90;;;;;;;16.53;59.56;102417.97;5027370;27;102183;-49
2021/10/07 02:09:17;;;;;;;7.53;6.03;;;;;;;16.53;58.97;102428.13;5023930;27;101917;-50
2021/10/07 02:11:46;;;;;;;7.13;5.93;;;;;;;16.53;59.48;102431.69;5032008;27;102715;-49
2021/10/07 02:14:12;;;;;;;7.22;6.07;;;;;;;16.53;58.96;102430.88;5034280;27;103969;-48
2021/10/07 02:16:39;;;;;;;8.45;5.68;;;;;;;16.53;59.38;102423.47;5033691;27;102084;-49
2021/10/07 02:19:06;;;;;;;7.38;5.63;;;;;;;16.51;59.05;102431.13;5033173;27;102237;-48
2021/10/07 02:21:32;;;;;;;6.38;5.47;;;;;;;16.52;59.37;102431.97;5028111;27;104504;-49
2021/10/07 02:23:59;;;;;;;7.53;5.78;;;;;;;16.52;59.29;102424.56;5027874;27;108546;-49
2021/10/07 02:26:25;;;;;;;9.65;5.43;;;;;;;16.52;59.07;102423.75;5033740;27;102289;-49
2021/10/07 02:28:54;;;;;;;7.90;5.80;;;;;;;16.51;59.51;102430.31;5032713;27;102352;-50
2021/10/07 02:31:22;;;;;;;6.95;5.47;;;;;;;16.52;59.08;102438.31;5031481;27;102233;-48
2021/10/07 02:33:49;;;;;;;7.28;5.60;;;;;;;16.50;58.97;102434.97;5032999;27;103986;-48
2021/10/07 02:36:16;;;;;;;7.30;5.65;;;;;;;16.51;59.47;102431.13;5033177;27;102182;-49
2021/10/07 02:38:42;;;;;;;6.10;5.30;;;;;;;16.51;59.46;102436.63;5034259;27;103811;-49
2021/10/07 02:41:10;;;;;;;6.38;5.57;;;;;;;16.50;59.00;102437.72;5028788;27;102198;-49
2021/10/07 02:43:36;;;;;;;6.82;5.57;;;;;;;16.50;59.44;102440.47;5024683;27;104361;-48
2021/10/07 02:46:04;;;;;;;9.73;5.53;;;;;;;16.50;58.95;102431.41;5029799;27;102394;-49
2021/10/07 02:48:31;;;;;;;7.45;5.93;;;;;;;16.50;59.08;102436.91;5033795;27;102424;-49
2021/10/07 02:50:58;;;;;;;7.43;5.15;;;;;;;16.50;59.15;102440.47;5025770;27;102172;-49
2021/10/07 02:53:27;;;;;;;6.43;5.30;;;;;;;16.49;59.14;102444.34;5028682;27;104165;-48
2021/10/07 02:55:53;;;;;;;7.15;5.78;;;;;;;16.48;59.54;102448.19;5032399;27;102580;-48
2021/10/07 02:58:20;;;;;;;7.55;5.47;;;;;;;16.49;59.47;102444.34;5027597;27;102125;-50
2021/10/07 03:00:46;;;;;;;7.05;5.18;;;;;;;16.48;58.82;102448.19;5026931;27;103259;-49
2021/10/07 03:03:14;;;;;;;9.45;5.70;;;;;;;16.49;59.47;102449.00;5031408;27;104004;-49
2021/10/07 03:05:41;;;;;;;7.90;5.50;;;;;;;16.48;59.59;102453.69;5023233;27;102160;-50
2021/10/07 03:08:08;;;;;;;7.18;6.10;;;;;;;16.48;59.35;102453.69;5029215;27;103441;-48
2021/10/07 03:10:34;;;;;;;7.65;5.40;;;;;;;16.48;58.96;102445.44;5019983;27;102684;-49
2021/10/07 03:13:01;;;;;;;7.65;4.85;;;;;;;16.48;59.21;102447.34;5027117;27;104020;-48
2021/10/07 03:15:27;;;;;;;6.45;5.15;;;;;;;16.47;59.45;102443.75;5033498;27;102191;-49
2021/10/07 03:17:53;;;;;;;7.18;4.85;;;;;;;16.48;59.07;102448.19;5034069;27;102261;-48
2021/10/07 03:20:21;;;;;;;6.55;4.63;;;;;;;16.47;59.48;102446.50;5022997;27;102258;-48
2021/10/07 03:22:48;;;;;;;6.97;4.57;;;;;;;16.47;59.31;102451.19;5035344;27;104509;-49
2021/10/07 03:25:14;;;;;;;6.45;5.05;;;;;;;16.46;59.18;102447.63;5025245;27;102834;-49
2021/10/07 03:27:41;;;;;;;7.40;5.05;;;;;;;16.46;59.31;102455.84;5016599;27;102017;-50
2021/10/07 03:30:09;;;;;;;8.27;4.90;;;;;;;16.48;59.14;102453.69;5028752;27;102412;-49
2021/10/07 03:32:37;;;;;;;6.47;4.90;;;;;;;16.46;59.12;102450.38;5034065;27;103903;-49
2021/10/07 03:35:05;;;;;;;6.13;4.10;;;;;;;16.46;59.18;102455.84;5035233;27;102119;-48
2021/10/07 03:37:37;;;;;;;;;;;;;;;16.46;58.99;102455.84;5029663;27;102036;-48
2021/10/07 03:40:05;;;;;;;6.30;4.63;;;;;;;16.46;59.11;102460.53;5038053;27;102738;-48
2021/10/07 03:42:32;;;;;;;6.00;4.57;;;;;;;16.46;58.99;102464.09;5040005;27;104393;-49
2021/10/07 03:44:58;;;;;;;6.63;4.93;;;;;;;16.45;59.20;102467.97;5043660;27;102327;-49
2021/10/07 03:47:24;;;;;;;6.72;5.07;;;;;;;16.46;59.56;102471.53;5034783;27;102538;-49
2021/10/07 03:49:53;;;;;;;6.93;4.72;;;;;;;16.45;59.11;102476.19;5039144;27;102178;-49
2021/10/07 03:52:19;;;;;;;7.60;4.53;;;;;;;16.46;59.38;102475.09;5035438;27;103957;-49
2021/10/07 03:54:48;;;;;;;6.68;4.80;;;;;;;16.45;59.13;102473.44;5036314;27;102155;-49
2021/10/07 03:57:14;;;;;;;6.65;5.03;;;;;;;16.45;59.14;102470.69;5033229;27;102297;-49
2021/10/07 03:59:41;;;;;;;7.90;5.00;;;;;;;16.44;59.58;102469.03;5034322;27;102198;-48
2021/10/07 04:02:08;;;;;;;6.88;5.15;;;;;;;16.45;59.40;102470.69;5026027;27;103889;-49
2021/10/07 04:04:34;;;;;;;8.32;4.70;;;;;;;16.45;59.32;102472.63;5027148;27;102224;-49
2021/10/07 04:07:00;;;;;;;7.15;4.03;;;;;;;16.45;59.03;102476.19;5032308;27;102426;-48
2021/10/07 04:09:27;;;;;;;5.55;4.32;;;;;;;16.44;59.44;102474.53;5029803;27;102517;-49
2021/10/07 04:11:55;;;;;;;6.97;4.38;;;;;;;16.45;59.33;102480.88;5022672;27;103191;-48
2021/10/07 04:14:22;;;;;;;4.57;4.07;;;;;;;16.44;59.12;102480.03;5029058;27;102152;-50
2021/10/07 04:16:48;;;;;;;5.40;4.45;;;;;;;16.44;59.46;102480.03;5031135;27;102812;-48
2021/10/07 04:19:15;;;;;;;5.68;4.32;;;;;;;16.43;59.17;102481.13;5027768;27;102598;-49
2021/10/07 04:21:41;;;;;;;8.38;5.07;;;;;;;16.44;59.03;102490.19;5027632;27;103935;-49
2021/10/07 04:24:08;;;;;;;5.75;4.63;;;;;;;16.43;59.49;102489.38;5025552;27;102522;-49
2021/10/07 04:26:35;;;;;;;5.85;4.43;;;;;;;16.43;59.55;102492.13;5023881;27;102250;-50
2021/10/07 04:29:03;;;;;;;7.55;4.38;;;;;;;16.42;59.58;102490.47;5029552;27;102534;-49
2021/10/07 04:31:30;;;;;;;7.23;4.40;;;;;;;16.43;59.41;102485.78;5031928;27;103947;-50
2021/10/07 04:33:56;;;;;;;5.07;3.80;;;;;;;16.42;59.00;102493.22;5039762;27;103117;-48
2021/10/07 04:36:23;;;;;;;6.13;4.53;;;;;;;16.43;58.99;102486.63;5028419;27;102345;-49
2021/10/07 04:38:50;;;;;;;6.10;4.20;;;;;;;16.42;59.06;102487.72;5029838;27;102151;-49
2021/10/07 04:41:16;;;;;;;4.40;3.53;;;;;;;16.42;59.29;102484.97;5034139;27;103656;-49
2021/10/07 04:43:43;;;;;;;4.50;3.50;;;;;;;16.42;59.18;102487.72;5032352;27;102149;-48
2021/10/07 04:46:12;;;;;;;4.03;3.58;;;;;;;16.41;59.10;102491.56;5027040;27;102190;-48
2021/10/07 04:48:38;;;;;;;8.95;4.38;;;;;;;16.42;59.15;102492.41;5034480;27;102306;-49
2021/10/07 04:51:05;;;;;;;6.10;4.15;;;;;;;16.41;59.00;102497.06;5032261;27;103660;-49
2021/10/07 04:53:31;;;;;;;5.25;3.85;;;;;;;16.41;59.20;102491.56;5036987;27;102247;-49
2021/10/07 04:55:58;;;;;;;5.03;4.05;;;;;;;16.41;59.10;102496.22;5032272;27;102466;-49
2021/10/07 04:58:24;;;;;;;5.32;3.42;;;;;;;16.40;59.44;102489.91;5035546;27;102682;-49
2021/10/07 05:00:52;;;;;;;3.50;3.20;;;;;;;16.39;59.45;102499.25;5029400;27;103901;-48
2021/10/07 05:03:20;;;;;;;4.82;3.35;;;;;;;16.39;59.30;102488.25;5034333;27;102340;-49
2021/10/07 05:05:47;;;;;;;4.93;2.90;;;;;;;16.39;59.06;102499.25;5034757;27;102204;-48
2021/10/07 05:08:14;;;;;;;8.23;3.67;;;;;;;16.39;59.46;102499.25;5036803;27;102175;-49
2021/10/07 05:10:40;;;;;;;6.07;3.47;;;;;;;16.39;59.19;102493.75;5027877;27;103724;-49
2021/10/07 05:13:07;;;;;;;7.70;4.15;;;;;;;16.38;59.24;102492.09;5028583;27;102465;-49
2021/10/07 05:15:34;;;;;;;5.90;3.40;;;;;;;16.39;59.30;102503.91;5032666;27;102405;-49
2021/10/07 05:18:01;;;;;;;3.72;3.05;;;;;;;16.39;58.86;102509.41;5035258;27;102560;-49
2021/10/07 05:20:29;;;;;;;4.90;3.50;;;;;;;16.37;59.08;102506.91;5031690;27;104394;-49
2021/10/07 05:22:55;;;;;;;4.23;3.23;;;;;;;16.37;58.90;102512.41;5032082;27;102333;-49
2021/10/07 05:25:23;;;;;;;5.18;3.97;;;;;;;16.38;59.12;102514.09;5031089;27;102364;-49
2021/10/07 05:27:49;;;;;;;5.50;3.22;;;;;;;16.37;59.31;102511.59;5029708;27;102395;-49
2021/10/07 05:30:16;;;;;;;4.65;3.05;;;;;;;16.38;59.43;102524.25;5027067;27;105567;-49
2021/10/07 05:32:43;;;;;;;9.05;4.03;;;;;;;16.36;58.92;102513.50;5026514;27;102916;-49
2021/10/07 05:35:09;;;;;;;6.13;3.83;;;;;;;16.37;59.17;102523.41;5027760;27;102162;-51
2021/10/07 05:37:38;;;;;;;6.28;3.70;;;;;;;16.35;59.22;102509.13;5023810;27;102225;-49
2021/10/07 05:40:05;;;;;;;6.45;4.13;;;;;;;16.33;59.09;102506.63;5030057;27;104465;-49
2021/10/07 05:42:32;;;;;;;5.18;3.58;;;;;;;16.34;59.00;102510.22;5031912;27;102101;-49
2021/10/07 05:44:59;;;;;;;6.60;4.28;;;;;;;16.34;59.08;102504.72;5031664;27;102170;-48
2021/10/07 05:47:25;;;;;;;8.48;4.20;;;;;;;16.32;58.91;102502.22;5029171;27;102205;-49
2021/10/07 05:49:52;;;;;;;6.15;3.50;;;;;;;16.32;59.36;102512.41;5023219;27;104134;-48
2021/10/07 05:52:18;;;;;;;3.95;3.17;;;;;;;16.32;59.53;102515.16;5027459;27;103934;-50
2021/10/07 05:54:46;;;;;;;5.95;3.35;;;;;;;16.32;58.98;102510.47;5017778;27;103609;-49
2021/10/07 05:57:13;;;;;;;4.20;3.00;;;;;;;16.32;59.55;102509.66;5021151;27;103764;-49
2021/10/07 05:59:40;;;;;;;4.85;3.42;;;;;;;16.32;59.28;102515.16;5029418;27;103669;-49
2021/10/07 06:02:06;;;;;;;4.47;3.05;;;;;;;16.32;58.97;102517.91;5031209;27;102203;-49
2021/10/07 06:04:33;;;;;;;4.80;3.20;;;;;;;16.32;59.07;102520.63;5023934;27;102140;-49
2021/10/07 06:06:59;;;;;;;4.82;3.42;;;;;;;16.32;59.10;102515.97;5042420;27;102585;-50
2021/10/07 06:09:26;;;;;;;5.00;3.45;;;;;;;16.31;59.42;102530.81;5025521;27;105346;-49
2021/10/07 06:11:54;;;;;;;8.10;3.25;;;;;;;16.31;59.20;102524.50;5026183;27;102869;-49
2021/10/07 06:14:23;;;;;;;3.73;2.90;;;;;;;16.31;59.29;102535.47;5031047;27;102567;-49
2021/10/07 06:16:53;;;;;;;5.10;3.00;;;;;;;16.32;59.39;102534.38;5032098;27;102150;-49
2021/10/07 06:19:21;;;;;;;5.07;2.80;;;;;;;16.31;59.28;102529.97;5023828;27;104149;-49
2021/10/07 06:21:48;;;;;;;7.55;3.70;;;;;;;16.30;59.50;102536.56;5030429;27;102236;-49
2021/10/07 06:24:15;;;;;;;6.05;3.00;;;;;;;16.30;59.34;102523.66;5035852;27;102232;-49
2021/10/07 06:26:42;;;;;;;3.53;2.70;;;;;;;16.31;59.37;102529.97;5033861;27;102218;-49
2021/10/07 06:29:10;;;;;;;3.47;2.22;;;;;;;16.31;59.27;102538.22;5036982;27;103067;-50
2021/10/07 06:31:38;;;;;;;7.83;3.57;;;;;;;16.30;59.42;102553.03;5028644;27;102213;-49
2021/10/07 06:34:06;;;;;;;4.83;2.83;;;;;;;16.29;59.13;102527.47;5028538;27;102797;-49
2021/10/07 06:36:34;;;;;;;4.72;2.80;;;;;;;16.30;59.27;102533.81;5032334;27;102417;-49
2021/10/07 06:39:01;;;;;;;5.75;3.22;;;;;;;16.29;59.42;102534.91;5031679;27;103886;-49
2021/10/07 06:41:27;;;;;;;4.60;3.40;;;;;;;16.28;59.08;102534.06;5030878;27;102325;-49
2021/10/07 06:43:54;;;;;;;5.68;3.33;;;;;;;16.30;59.10;102550.28;5032013;27;103186;-49
2021/10/07 06:46:24;;;;;;;4.60;3.20;;;;;;;16.29;58.87;102532.16;5035326;27;102483;-48
2021/10/07 06:48:55;;;;;;;4.47;3.28;;;;;;;16.29;59.13;102529.41;5029721;27;104066;-49
2021/10/07 06:51:22;;;;;;;6.90;3.50;;;;;;;16.29;59.30;102521.16;5019733;27;102148;-49
2021/10/07 06:53:52;;;;;;;5.18;3.40;;;;;;;16.29;58.91;102515.66;5018440;27;103741;-49
2021/10/07 06:56:20;;;;;;;4.90;2.90;;;;;;;16.28;59.30;102519.53;5030553;27;102466;-50
2021/10/07 06:58:52;;;;;;;5.47;2.95;;;;;;;16.28;59.03;102520.34;5026436;27;103968;-48
2021/10/07 07:01:19;;;;;;;7.28;3.13;;;;;;;16.30;59.45;102522.81;5027601;27;102268;-50
2021/10/07 07:03:49;;;;;;;6.07;3.25;;;;;;;16.28;59.30;102511.28;5026857;27;102527;-48
2021/10/07 07:06:15;;;;;;;6.82;3.90;;;;;;;16.28;59.38;102514.84;5034288;27;102996;-48
2021/10/07 07:08:42;;;;;;;5.00;3.47;;;;;;;16.29;59.24;102504.69;5029977;27;103915;-49
2021/10/07 07:11:09;;;;;;;4.40;2.92;;;;;;;16.28;58.84;102519.53;5030106;27;101992;-48
2021/10/07 07:13:35;;;;;;;6.60;3.08;;;;;;;16.28;59.04;102519.53;5024487;27;102181;-49
2021/10/07 07:16:03;;;;;;;5.50;3.38;;;;;;;16.28;59.31;102514.84;5030994;27;103789;-50
2021/10/07 07:18:30;;;;;;;5.32;3.47;;;;;;;16.28;58.91;102522.25;5032454;27;104178;-49
2021/10/07 07:20:57;;;;;;;7.47;3.75;;;;;;;16.27;59.02;102518.69;5034973;27;102129;-49
2021/10/07 07:23:24;;;;;;;4.32;3.10;;;;;;;16.28;59.16;102522.25;5034217;27;102406;-48
2021/10/07 07:25:50;;;;;;;6.25;3.45;;;;;;;16.27;59.10;102531.63;5033037;27;102472;-50
2021/10/07 07:28:18;;;;;;;5.72;3.33;;;;;;;16.27;59.31;102524.19;5030950;27;103963;-49
2021/10/07 07:30:44;;;;;;;7.95;3.47;;;;;;;16.28;59.26;102536.00;5034561;27;102403;-48
2021/10/07 07:33:11;;;;;;;5.53;3.70;;;;;;;16.27;58.95;102539.84;5032656;27;102293;-48
2021/10/07 07:35:38;;;;;;;5.88;3.22;;;;;;;16.26;59.18;102532.69;5035682;27;102321;-49
2021/10/07 07:38:05;;;;;;;6.35;3.20;;;;;;;16.26;59.14;102528.03;5022814;27;104600;-48
2021/10/07 07:40:33;;;;;;;10.77;3.30;;;;;;;16.26;58.62;102529.94;5037433;27;103152;-49
2021/10/07 07:43:00;;;;;;;8.10;4.05;;;;;;;16.26;59.04;102521.69;5033728;27;102417;-49
2021/10/07 07:45:27;;;;;;;8.85;3.72;;;;;;;16.25;58.61;102522.78;5031635;27;102510;-49
2021/10/07 07:47:53;;;;;;;8.85;3.78;;;;;;;16.23;59.00;102506.59;5034949;27;103892;-49
2021/10/07 07:50:23;;;;;;;6.82;3.65;;;;;;;16.24;58.76;102518.41;5035594;27;103228;-50
2021/10/07 07:52:51;;;;;;;9.80;4.05;;;;;;;16.23;58.75;102522.25;5028773;27;102567;-50
2021/10/07 07:55:19;;;;;;;7.80;3.87;;;;;;;16.22;58.73;102515.06;5037425;27;102135;-49
2021/10/07 07:57:46;;;;;;;9.77;4.20;;;;;;;16.21;58.69;102513.44;5026331;27;105049;-49
2021/10/07 08:00:13;;;;;;;9.43;4.50;;;;;;;16.21;58.57;102511.50;5027983;27;102274;-49
2021/10/07 08:02:40;;;;;;;8.90;3.93;;;;;;;16.22;58.67;102509.59;5032822;27;102383;-49
2021/10/07 08:05:08;;;;;;;9.23;4.07;;;;;;;16.21;58.06;102518.94;5034978;27;102875;-49
2021/10/07 08:07:34;;;;;;;11.55;3.85;;;;;;;16.22;58.04;102512.34;5027769;27;104124;-49
2021/10/07 08:10:01;;;;;;;7.60;3.50;;;;;;;16.21;57.98;102508.75;5032558;27;102525;-48
2021/10/07 08:12:33;;;;;;;7.90;3.60;;;;;;;16.20;58.21;102512.63;5033777;27;102157;-49
2021/10/07 08:15:01;;;;;;;7.43;3.67;;;;;;;16.21;58.00;102516.19;5034921;27;102925;-48
2021/10/07 08:17:27;;;;;;;9.40;3.85;;;;;;;16.22;58.01;102509.59;5029791;27;103855;-48
2021/10/07 08:19:54;;;;;;;9.05;3.50;;;;;;;16.21;58.06;102511.50;5035313;27;101990;-48
2021/10/07 08:22:22;;;;;;;8.05;3.38;;;;;;;16.20;58.05;102531.03;5034587;27;102232;-49
2021/10/07 08:24:48;;;;;;;7.32;3.47;;;;;;;16.20;58.04;102529.09;5027236;27;102117;-49
2021/10/07 08:27:15;;;;;;;7.35;3.80;;;;;;;16.20;58.03;102531.84;5030557;27;104749;-50
2021/10/07 08:29:43;;;;;;;11.82;3.58;;;;;;;16.20;57.89;102531.03;5026340;27;103170;-49
2021/10/07 08:32:10;;;;;;;12.15;4.38;;;;;;;16.20;58.05;102528.28;5027181;27;103475;-49
2021/10/07 08:34:37;;;;;;;5.50;3.53;;;;;;;16.19;58.03;102532.94;5024017;27;102234;-50
2021/10/07 08:37:04;;;;;;;7.97;3.85;;;;;;;16.18;57.74;102530.44;5028054;27;103752;-48
2021/10/07 08:39:31;;;;;;;8.68;3.72;;;;;;;16.19;57.59;102534.84;5027758;27;102752;-49
2021/10/07 08:41:59;;;;;;;7.60;3.72;;;;;;;16.20;57.40;102520.03;5024375;27;102454;-49
2021/10/07 08:44:27;;;;;;;6.75;3.42;;;;;;;16.20;57.67;102520.03;5025698;27;102791;-48
2021/10/07 08:46:56;;;;;;;6.05;3.72;;;;;;;16.19;57.35;102516.47;5026451;27;103909;-49
2021/10/07 08:49:25;;;;;;;8.38;3.33;;;;;;;16.20;57.43;102528.28;5028199;27;102271;-50
2021/10/07 08:51:51;;;;;;;7.03;3.40;;;;;;;16.20;57.57;102531.03;5029782;27;102146;-49
2021/10/07 08:54:20;;;;;;;8.55;3.83;;;;;;;16.19;57.55;102515.59;5032837;27;102542;-49
2021/10/07 08:56:48;;;;;;;9.60;3.85;;;;;;;16.21;57.59;102518.94;5029038;27;103901;-49
2021/10/07 08:59:14;;;;;;;5.15;3.22;;;;;;;16.21;56.94;102516.19;5026109;27;102105;-50
2021/10/07 09:01:43;;;;;;;11.63;4.57;;;;;;;16.21;56.97;102514.25;5032857;27;102085;-49
2021/10/07 09:04:19;;;;;;;8.45;3.83;;;;;;;16.22;56.82;102515.06;5038823;27;102579;-49
2021/10/07 09:06:47;;;;;;;6.40;3.05;;;;;;;16.24;56.93;102529.38;5029811;27;104696;-48
2021/10/07 09:09:14;;;;;;;12.27;4.20;;;;;;;16.24;56.91;102534.88;5034657;27;102078;-49
2021/10/07 09:11:42;;;;;;;6.55;4.13;;;;;;;16.24;56.95;102530.22;5033326;27;102316;-49
2021/10/07 09:14:10;;;;;;;8.63;3.95;;;;;;;16.25;57.03;102531.03;5025607;27;102834;-48
2021/10/07 09:16:43;;;;;;;7.07;3.60;;;;;;;16.26;57.41;102528.03;5034483;27;103947;-49
2021/10/07 09:19:14;;;;;;;9.27;4.15;;;;;;;16.27;57.26;102534.34;5031839;27;103286;-48
2021/10/07 09:21:43;;;;;;;6.82;3.67;;;;;;;16.27;57.21;102532.44;5035304;27;102396;-49
2021/10/07 09:24:34;;;;;;;6.30;3.25;;;;;;;16.29;57.37;102526.66;5033914;27;102283;-48
2021/10/07 09:27:03;;;;;;;7.57;3.35;;;;;;;16.29;57.32;102538.47;5030707;27;108102;-49
2021/10/07 09:29:35;;;;;;;9.65;3.60;;;;;;;16.30;57.36;102531.06;5033038;27;102360;-49
2021/10/07 09:32:03;;;;;;;6.32;4.07;;;;;;;16.30;57.16;102522.81;5035617;27;102392;-49
2021/10/07 09:34:44;;;;;;;6.60;3.88;;;;;;;16.31;57.31;102524.50;5036923;27;105267;-48
2021/10/07 09:37:27;;;;;;;5.97;3.38;;;;;;;16.30;57.03;102512.69;5030979;27;104128;-49
2021/10/07 09:39:57;;;;;;;4.55;3.22;;;;;;;16.32;57.34;102515.97;5037783;27;102285;-49
2021/10/07 09:42:27;;;;;;;7.00;3.13;;;;;;;16.32;57.19;102523.38;5020164;27;102070;-49
2021/10/07 09:45:01;;;;;;;7.03;3.80;;;;;;;16.33;57.11;102516.78;5025524;27;105122;-48
2021/10/07 09:47:30;;;;;;;7.00;4.05;;;;;;;16.33;57.28;102516.78;5033965;27;104053;-48
2021/10/07 09:50:11;;;;;;;7.90;3.92;;;;;;;16.34;57.62;102523.97;5024854;27;102376;-49
2021/10/07 09:52:40;;;;;;;5.63;3.70;;;;;;;16.35;57.49;102525.59;5026775;27;102373;-48
2021/10/07 09:55:09;;;;;;;9.35;3.75;;;;;;;16.33;57.35;102520.34;5031886;27;102212;-48
2021/10/07 09:57:46;;;;;;;;;;;;;;;16.34;57.35;102529.47;5032030;27;103904;-49
2021/10/07 10:00:13;;;;;;;8.23;4.38;;;;;;;16.34;57.60;102518.47;5031044;27;102599;-49
2021/10/07 10:02:41;;;;;;;8.02;4.07;;;;;;;16.34;57.41;102522.03;5030552;27;102959;-49
2021/10/07 10:05:13;;;;;;;7.80;4.82;;;;;;;16.35;57.32;102509.13;5034657;27;102517;-49
2021/10/07 10:07:41;;;;;;;12.10;4.88;;;;;;;16.35;57.58;102525.59;5027134;27;102732;-49
2021/10/07 10:10:10;;;;;;;11.10;5.32;;;;;;;16.35;57.37;102514.63;5024977;27;102639;-49
2021/10/07 10:12:37;;;;;;;11.05;5.88;;;;;;;16.34;57.60;102507.47;5032216;27;102272;-48
2021/10/07 10:15:05;;;;;;;9.55;5.88;;;;;;;16.35;57.52;102509.13;5028536;27;102485;-48
2021/10/07 10:17:36;;;;;;;9.10;5.93;;;;;;;16.36;57.69;102499.78;5024103;27;104930;-49
2021/10/07 10:20:06;;;;;;;9.60;5.97;;;;;;;16.35;57.30;102498.13;5030648;27;104068;-49
2021/10/07 10:22:34;;;;;;;6.57;5.22;;;;;;;16.35;57.34;102487.13;5026406;27;102193;-50
2021/10/07 10:25:03;;;;;;;9.02;5.47;;;;;;;16.37;57.58;102497.84;5036171;27;102319;-50
2021/10/07 10:27:48;;;;;;;9.48;5.18;;;;;;;16.35;57.51;102476.16;5032161;27;104153;-50
2021/10/07 10:30:19;;;;;;;9.75;5.80;;;;;;;16.37;57.88;102484.94;5033435;27;102848;-49
2021/10/07 10:32:46;;;;;;;8.32;4.90;;;;;;;16.36;57.58;102477.78;5030568;27;102655;-49
2021/10/07 10:35:35;;;;;;;6.40;4.57;;;;;;;16.36;57.89;102480.53;5031306;27;102704;-48
2021/10/07 10:38:05;;;;;;;6.00;4.82;;;;;;;16.35;57.77;102473.41;5026393;27;104069;-49
2021/10/07 10:40:33;;;;;;;9.57;5.65;;;;;;;16.35;57.69;102478.91;5027662;27;102392;-49
2021/10/07 10:43:30;;;;;;;8.18;5.03;;;;;;;16.34;57.72;102469.84;5032361;27;102313;-49
2021/10/07 10:46:16;;;;;;;6.43;4.63;;;;;;;16.34;57.41;102463.50;5027164;27;102811;-49
2021/10/07 10:49:02;;;;;;;14.65;4.85;;;;;;;16.35;57.95;102470.66;5019839;27;103728;-49
2021/10/07 10:51:34;;;;;;;6.75;4.55;;;;;;;16.36;57.42;102471.47;5025130;27;103174;-49
2021/10/07 10:54:11;;;;;;;8.65;4.28;;;;;;;16.34;58.05;102469.84;5021600;27;104735;-49
2021/10/07 10:56:57;;;;;;;10.20;4.63;;;;;;;16.33;57.63;102472.81;5027319;27;102404;-49
2021/10/07 10:59:26;;;;;;;10.93;4.10;;;;;;;16.33;57.96;102461.84;5028997;27;103887;-49
2021/10/07 11:02:24;;;;;;;5.75;4.22;;;;;;;16.33;57.79;102457.16;5027972;27;104592;-49
2021/10/07 11:04:53;;;;;;;7.73;3.97;;;;;;;16.33;57.73;102461.84;5027441;27;106329;-49
2021/10/07 11:07:22;;;;;;;6.05;3.85;;;;;;;16.32;57.68;102449.19;5037272;27;102290;-48
2021/10/07 11:10:01;;;;;;;6.25;3.55;;;;;;;16.33;57.84;102448.09;5038482;27;102690;-50
2021/10/07 11:12:45;;;;;;;7.57;4.03;;;;;;;16.33;57.48;102448.09;5026459;27;105018;-49
2021/10/07 11:15:12;;;;;;;7.85;4.25;;;;;;;16.33;57.77;102461.84;5035877;27;102571;-49
2021/10/07 11:17:40;;;;;;;9.32;4.22;;;;;;;16.31;57.73;102456.63;5033098;27;102978;-49
2021/10/07 11:20:08;;;;;;;7.00;3.72;;;;;;;16.32;57.60;102460.19;5030422;27;103903;-50
2021/10/07 11:22:35;;;;;;;10.32;4.68;;;;;;;16.31;57.63;102453.88;5032359;27;102368;-50
2021/10/07 11:25:05;;;;;;;7.18;4.15;;;;;;;16.31;57.71;102453.06;5030202;27;102879;-50
2021/10/07 11:27:36;;;;;;;8.90;4.38;;;;;;;16.30;57.77;102445.88;5030207;27;102379;-49